Time;durP1;ratioP1;P1;durP2;ratioP2;P2;SDS_P1;SDS_P2;PMS_P1;PMS_P2;Temp;Humidity;BMP_temperature;BMP_pressure;BME280_temperature;BME280_humidity;BME280_pressure;Samples;Min_cycle;Max_cycle;Signal;HPM_P1;HPM_P2
2022/04/01 00:02:27;;;;;;;12.37;8.60;;;5.40;99.90;;;6.10;100.00;96329.19;4983661;28;20475;-74
2022/04/01 00:04:58;;;;;;;12.13;8.27;;;5.40;99.90;;;6.05;100.00;96325.41;4984619;28;20442;-75
2022/04/01 00:07:28;;;;;;;10.43;8.50;;;5.30;99.90;;;6.08;100.00;96316.41;4984412;28;20458;-74
2022/04/01 00:09:57;;;;;;;11.90;9.30;;;5.40;99.90;;;6.04;100.00;96325.59;4983274;28;20502;-75
2022/04/01 00:12:26;;;;;;;11.90;8.70;;;5.30;99.90;;;6.01;100.00;96321.59;4984848;28;20568;-75
2022/04/01 00:14:56;;;;;;;11.53;8.17;;;5.30;99.90;;;6.00;100.00;96322.59;4985633;28;20530;-74
2022/04/01 00:17:27;;;;;;;11.90;8.43;;;5.20;99.90;;;6.01;100.00;96315.63;4984227;28;20476;-75
2022/04/01 00:19:57;;;;;;;13.03;9.27;;;5.20;99.90;;;6.01;100.00;96324.19;4983722;28;20455;-74
2022/04/01 00:22:27;;;;;;;12.60;9.13;;;5.20;99.90;;;5.99;100.00;96320.22;4983445;28;20943;-74
2022/04/01 00:24:58;;;;;;;11.23;8.60;;;5.30;99.90;;;5.98;100.00;96318.63;4977958;28;20460;-75
2022/04/01 00:27:28;;;;;;;12.50;9.37;;;5.30;99.90;;;5.96;100.00;96320.63;4983644;28;20531;-75
2022/04/01 00:29:59;;;;;;;10.93;8.13;;;5.30;99.90;;;5.97;100.00;96317.81;4983876;28;20453;-74
2022/04/01 00:32:30;;;;;;;13.07;8.83;;;5.30;99.90;;;5.91;100.00;96321.22;4982132;28;20460;-74
2022/04/01 00:34:59;;;;;;;13.60;8.77;;;5.20;99.90;;;5.94;100.00;96315.63;4981998;28;20482;-74
2022/04/01 00:37:29;;;;;;;23.43;8.40;;;5.30;99.90;;;5.92;100.00;96316.84;4982266;28;20457;-74
2022/04/01 00:39:58;;;;;;;10.60;8.63;;;5.30;99.90;;;5.88;100.00;96321.63;4983137;28;20482;-74
2022/04/01 00:42:27;;;;;;;11.57;8.60;;;5.40;99.90;;;5.83;100.00;96315.41;4980400;28;20958;-74
2022/04/01 00:44:58;;;;;;;10.07;7.27;;;5.20;99.90;;;5.86;100.00;96317.63;4979360;28;20466;-74
2022/04/01 00:47:28;;;;;;;13.70;8.57;;;5.20;99.90;;;5.84;100.00;96319.59;4980052;28;20468;-75
2022/04/01 00:49:57;;;;;;;11.33;7.77;;;5.20;99.90;;;5.85;100.00;96311.63;4979937;28;20476;-75
2022/04/01 00:52:27;;;;;;;12.50;8.13;;;5.10;99.90;;;5.79;100.00;96317.63;4978180;28;20467;-75
2022/04/01 00:54:57;;;;;;;14.73;8.83;;;5.10;99.90;;;5.79;100.00;96316.81;4978849;28;20492;-75
2022/04/01 00:57:30;;;;;;;12.20;8.53;;;5.10;99.90;;;5.82;100.00;96319.81;4982640;28;20900;-74
2022/04/01 01:00:00;;;;;;;11.70;8.77;;;5.10;99.90;;;5.85;100.00;96316.00;4979913;28;20474;-74
2022/04/01 01:02:31;;;;;;;11.00;8.23;;;5.20;99.90;;;5.85;100.00;96311.63;4981826;28;20563;-74
2022/04/01 01:05:00;;;;;;;11.93;8.60;;;5.10;99.90;;;5.78;100.00;96315.19;4981145;28;20524;-74
2022/04/01 01:07:32;;;;;;;12.33;8.40;;;5.10;99.90;;;5.76;100.00;96314.63;4986095;28;20474;-75
2022/04/01 01:10:01;;;;;;;11.00;7.90;;;5.20;99.90;;;5.75;100.00;96318.19;4984278;28;20496;-75
2022/04/01 01:12:31;;;;;;;12.10;7.50;;;5.20;99.90;;;5.71;100.00;96314.41;4983085;28;20497;-75
2022/04/01 01:15:11;;;;;;;11.00;7.50;;;5.20;99.90;;;5.70;100.00;96317.97;4981929;28;20464;-74
2022/04/01 01:17:41;;;;;;;10.07;8.20;;;5.10;99.90;;;5.73;100.00;96313.19;4984026;28;20495;-75
2022/04/01 01:20:15;;;;;;;13.93;7.80;;;5.10;99.90;;;5.77;100.00;96311.00;4984027;28;20475;-75
2022/04/01 01:22:48;;;;;;;11.83;7.67;;;5.00;99.90;;;5.79;100.00;96311.63;4983673;28;20463;-74
2022/04/01 01:25:18;;;;;;;12.47;7.77;;;5.00;99.90;;;5.78;100.00;96310.81;4985824;28;20548;-74
2022/04/01 01:27:48;;;;;;;11.20;7.93;;;5.00;99.90;;;5.81;100.00;96304.44;4983595;28;20883;-74
2022/04/01 01:30:19;;;;;;;13.47;8.57;;;5.10;99.90;;;5.80;100.00;96308.00;4983503;28;20531;-74
2022/04/01 01:32:49;;;;;;;11.03;8.30;;;5.10;99.90;;;5.75;100.00;96306.03;4984206;28;20517;-74
2022/04/01 01:35:19;;;;;;;11.87;7.40;;;5.10;99.90;;;5.74;100.00;96303.63;4986031;28;20471;-75
2022/04/01 01:37:49;;;;;;;9.93;7.20;;;5.10;99.90;;;5.76;100.00;96299.84;4985015;28;20987;-74
2022/04/01 01:40:20;;;;;;;9.33;7.37;;;5.10;99.90;;;5.76;100.00;96302.44;4984580;28;20502;-75
2022/04/01 01:42:48;;;;;;;13.67;8.37;;;5.10;99.90;;;5.77;100.00;96308.41;4982144;28;20918;-74
2022/04/01 01:45:19;;;;;;;11.00;7.70;;;5.10;99.90;;;5.78;100.00;96308.22;4974962;28;20514;-74
2022/04/01 01:47:48;;;;;;;10.77;7.77;;;5.00;99.90;;;5.79;100.00;96306.44;4984414;28;20555;-75
2022/04/01 01:55:56;;;;;;;9.57;7.80;;;5.00;99.90;;;5.86;100.00;96307.25;4987448;28;21018;-75
2022/04/01 01:58:27;;;;;;;9.17;7.40;;;5.00;99.90;;;5.85;100.00;96303.84;4985255;28;20493;-74
2022/04/01 02:00:56;;;;;;;8.50;6.47;;;5.00;99.90;;;5.79;100.00;96304.66;4984948;28;20494;-74
2022/04/01 02:03:25;;;;;;;9.80;6.87;;;4.90;99.90;;;5.77;100.00;96301.44;4984317;28;20481;-75
2022/04/01 02:05:55;;;;;;;12.00;6.90;;;4.90;99.90;;;5.79;100.00;96294.28;4984419;28;20470;-75
2022/04/01 02:08:24;;;;;;;14.13;7.80;;;4.90;99.90;;;5.83;100.00;96294.66;4984087;28;20537;-74
2022/04/01 02:10:54;;;;;;;10.60;7.00;;;5.00;99.90;;;5.83;100.00;96299.84;4983309;28;20474;-74
2022/04/01 02:13:26;;;;;;;9.20;6.90;;;5.00;99.90;;;5.78;100.00;96291.88;4983829;28;20466;-74
2022/04/01 02:15:55;;;;;;;14.20;8.30;;;4.90;99.90;;;5.75;100.00;96297.47;4981668;28;20569;-75
2022/04/01 02:18:25;;;;;;;9.63;6.70;;;4.90;99.90;;;5.76;100.00;96297.25;4984149;28;20494;-75
2022/04/01 02:20:55;;;;;;;11.00;7.90;;;5.00;99.90;;;5.78;100.00;96304.84;4983253;28;20833;-75
2022/04/01 02:23:24;;;;;;;9.63;6.73;;;5.00;99.90;;;5.75;100.00;96300.84;4985892;28;20477;-75
2022/04/01 02:25:54;;;;;;;8.30;6.43;;;4.90;99.90;;;5.79;100.00;96309.03;4986100;28;20458;-74
2022/04/01 02:28:25;;;;;;;9.57;6.97;;;5.00;99.90;;;5.76;100.00;96309.44;4986606;28;20474;-74
2022/04/01 02:30:54;;;;;;;8.00;6.17;;;4.90;99.90;;;5.81;100.00;96301.84;4984594;28;20447;-74
2022/04/01 02:33:25;;;;;;;8.13;6.80;;;5.10;99.90;;;5.82;100.00;96306.84;4984071;28;20949;-74
2022/04/01 02:35:57;;;;;;;8.50;6.93;;;5.00;99.90;;;5.83;100.00;96313.59;4983682;28;20468;-75
2022/04/01 02:38:27;;;;;;;9.47;6.80;;;5.10;99.90;;;5.80;100.00;96314.00;4985657;28;20552;-75
2022/04/01 02:40:59;;;;;;;8.80;6.60;;;5.00;99.90;;;5.75;100.00;96311.22;4982882;28;20505;-74
2022/04/01 02:43:29;;;;;;;10.20;7.00;;;5.00;99.90;;;5.71;100.00;96312.63;4983195;28;20474;-75
2022/04/01 02:45:59;;;;;;;7.87;6.60;;;5.00;99.90;;;5.72;100.00;96301.25;4981238;28;20563;-74
2022/04/01 02:48:30;;;;;;;7.13;6.30;;;5.00;99.90;;;5.74;100.00;96308.81;4983907;28;20470;-75
2022/04/01 02:51:00;;;;;;;8.87;6.40;;;5.10;99.90;;;5.71;100.00;96304.84;4982844;28;20495;-74
2022/04/01 02:53:29;;;;;;;8.60;6.50;;;5.00;99.90;;;5.69;100.00;96309.44;4984154;28;20471;-75
2022/04/01 02:56:00;;;;;;;9.10;6.37;;;5.10;99.90;;;5.69;100.00;96312.03;4986464;28;20497;-74
2022/04/01 02:58:30;;;;;;;9.40;6.70;;;5.00;99.90;;;5.69;100.00;96309.44;4986098;28;20473;-75
2022/04/01 03:00:59;;;;;;;9.30;6.07;;;5.10;99.90;;;5.72;100.00;96313.41;4978811;28;20557;-75
2022/04/01 03:03:30;;;;;;;11.37;7.77;;;5.00;99.90;;;5.68;100.00;96315.59;4984152;28;20474;-75
2022/04/01 03:06:01;;;;;;;9.13;5.97;;;5.00;99.90;;;5.69;100.00;96326.78;4985443;28;20478;-74
2022/04/01 03:08:31;;;;;;;9.70;6.30;;;5.00;99.90;;;5.71;100.00;96319.59;4975508;28;20980;-75
2022/04/01 03:11:01;;;;;;;12.27;6.57;;;5.00;99.90;;;5.70;100.00;96321.38;4986401;28;21015;-75
2022/04/01 03:13:33;;;;;;;11.10;7.37;;;4.90;99.90;;;5.73;100.00;96325.38;4983575;28;20553;-75
2022/04/01 03:16:04;;;;;;;9.57;6.63;;;4.90;99.90;;;5.74;100.00;96320.00;4984554;28;21052;-75
2022/04/01 03:18:34;;;;;;;12.00;7.60;;;5.00;99.90;;;5.71;100.00;96325.56;4985319;28;20983;-75
2022/04/01 03:21:03;;;;;;;12.33;8.27;;;5.00;99.90;;;5.70;100.00;96320.56;4983985;28;20537;-75
2022/04/01 03:23:33;;;;;;;11.23;7.43;;;5.00;99.90;;;5.70;100.00;96318.78;4985846;28;20703;-75
2022/04/01 03:26:03;;;;;;;11.90;8.23;;;5.00;99.90;;;5.70;100.00;96318.78;4984821;28;20450;-75
2022/04/01 03:28:39;;;;;;;13.73;8.10;;;4.90;99.90;;;5.69;100.00;96327.59;4985807;28;20469;-75
2022/04/01 03:31:11;;;;;;;15.70;8.40;;;4.90;99.90;;;5.72;100.00;96321.19;4984141;28;20470;-74
2022/04/01 03:33:41;;;;;;;11.67;7.43;;;4.90;99.90;;;5.73;100.00;96322.78;4986052;28;20794;-75
2022/04/01 03:36:13;;;;;;;13.10;8.60;;;5.00;99.90;;;5.70;100.00;96318.78;4985319;28;20451;-75
2022/04/01 03:38:43;;;;;;;11.47;7.70;;;5.00;99.90;;;5.69;100.00;96319.81;4985309;28;20458;-75
2022/04/01 03:41:15;;;;;;;12.10;7.77;;;5.00;99.90;;;5.66;100.00;96319.41;4985118;28;20494;-75
2022/04/01 03:43:43;;;;;;;11.87;8.70;;;4.90;99.90;;;5.65;100.00;96323.78;4983593;28;20544;-75
2022/04/01 03:46:17;;;;;;;10.97;8.27;;;4.90;99.90;;;5.61;100.00;96325.19;4983555;28;20448;-75
2022/04/01 03:48:57;;;;;;;16.70;8.70;;;4.80;99.90;;;5.59;100.00;96322.78;4983852;28;20453;-75
2022/04/01 03:51:27;;;;;;;12.00;8.03;;;4.80;99.90;;;5.63;100.00;96327.56;4984154;28;20544;-75
2022/04/01 03:54:00;;;;;;;12.73;8.83;;;4.90;99.90;;;5.66;100.00;96327.19;4981694;28;20494;-74
2022/04/01 03:56:35;;;;;;;12.77;8.03;;;4.90;99.90;;;5.66;100.00;96329.78;4984677;28;20502;-74
2022/04/01 03:59:07;;;;;;;13.40;8.33;;;4.90;99.90;;;5.61;100.00;96329.56;4979248;28;20891;-74
2022/04/01 04:01:39;;;;;;;10.97;7.50;;;4.80;99.90;;;5.57;100.00;96329.97;4979607;28;20476;-75
2022/04/01 04:04:10;;;;;;;10.17;7.23;;;4.90;99.90;;;5.58;100.00;96334.16;4982219;28;20502;-74
2022/04/01 04:06:41;;;;;;;12.20;8.80;;;4.80;99.90;;;5.58;100.00;96333.34;4983551;28;20469;-75
2022/04/01 04:09:10;;;;;;;10.00;7.60;;;4.90;99.90;;;5.55;100.00;96334.53;4984337;28;20444;-75
2022/04/01 04:11:42;;;;;;;12.23;7.50;;;4.80;99.90;;;5.52;100.00;96332.34;4984224;28;20476;-74
2022/04/01 04:14:12;;;;;;;12.33;8.23;;;4.70;99.90;;;5.56;100.00;96328.34;4981469;28;20519;-75
2022/04/01 04:16:48;;;;;;;12.00;8.43;;;4.80;99.90;;;5.56;100.00;96332.72;4984092;28;20466;-74
2022/04/01 04:19:36;;;;;;;11.20;7.37;;;4.70;99.90;;;5.53;100.00;96327.94;4984580;28;20457;-74
2022/04/01 04:22:13;;;;;;;11.47;7.43;;;4.70;99.90;;;5.55;100.00;96336.34;4982552;28;20475;-75
2022/04/01 04:24:54;;;;;;;11.50;8.00;;;4.80;99.90;;;5.55;100.00;96333.75;4981759;28;20464;-74
2022/04/01 04:27:28;;;;;;;13.70;8.17;;;4.70;99.90;;;5.57;100.00;96340.31;4984801;28;20530;-75
2022/04/01 04:30:08;;;;;;;10.53;7.60;;;4.70;99.90;;;5.55;100.00;96344.88;4982429;28;20470;-74
2022/04/01 04:32:44;;;;;;;12.80;8.50;;;4.70;99.90;;;5.55;100.00;96344.88;4983883;28;20470;-74
2022/04/01 04:35:12;;;;;;;17.50;8.00;;;4.70;99.90;;;5.50;100.00;96346.50;4984107;28;20479;-74
2022/04/01 04:37:47;;;;;;;11.40;7.73;;;4.70;99.90;;;5.48;100.00;96346.69;4983623;28;20530;-74
2022/04/01 04:40:19;;;;;;;12.97;8.27;;;4.60;99.90;;;5.50;100.00;96351.69;4984759;28;20526;-74
2022/04/01 04:42:50;;;;;;;11.57;7.60;;;4.70;99.90;;;5.47;100.00;96355.47;4989216;28;20443;-74
2022/04/01 04:45:22;;;;;;;11.50;8.60;;;4.60;99.90;;;5.46;100.00;96363.44;4987759;28;20448;-74
2022/04/01 04:47:52;;;;;;;10.37;7.63;;;4.60;99.90;;;5.41;100.00;96361.44;4985950;28;20490;-74
2022/04/01 04:50:23;;;;;;;19.37;8.50;;;4.50;99.90;;;5.42;100.00;96365.63;4985817;28;20459;-74
2022/04/01 04:52:56;;;;;;;14.17;9.40;;;4.60;99.90;;;5.43;100.00;96367.22;4987260;28;20493;-75
2022/04/01 04:55:27;;;;;;;11.53;8.53;;;4.60;99.90;;;5.43;100.00;96369.00;4986083;28;20455;-74
2022/04/01 04:57:58;;;;;;;14.40;9.10;;;4.60;99.90;;;5.37;100.00;96370.59;4988700;28;20487;-75
2022/04/01 05:00:28;;;;;;;15.47;9.00;;;4.50;99.90;;;5.32;100.00;96377.34;4984957;28;21034;-74
2022/04/01 05:03:23;;;;;;;13.43;8.40;;;4.50;99.90;;;5.37;100.00;96377.56;4981394;28;20895;-74
2022/04/01 05:05:56;;;;;;;39.03;21.17;;;4.50;99.90;;;5.38;100.00;96377.34;4978714;28;20959;-74
2022/04/01 05:08:41;;;;;;;16.47;9.83;;;4.60;99.90;;;5.39;100.00;96384.16;4980544;28;20473;-75
2022/04/01 05:11:26;;;;;;;12.60;8.67;;;4.60;99.90;;;5.40;100.00;96385.75;4985002;28;20468;-74
2022/04/01 05:14:04;;;;;;;14.33;9.93;;;4.60;99.90;;;5.33;100.00;96394.50;4983936;28;20462;-75
2022/04/01 05:16:52;;;;;;;26.03;14.90;;;4.50;99.90;;;5.31;100.00;96407.63;4986843;28;20651;-80
2022/04/01 05:19:27;;;;;;;18.13;10.20;;;4.50;99.90;;;5.32;100.00;96408.44;4985374;28;20456;-74
2022/04/01 05:22:04;;;;;;;17.53;9.77;;;4.50;99.90;;;5.25;100.00;96411.00;4981474;28;20501;-75
2022/04/01 05:24:39;;;;;;;16.00;9.30;;;4.50;99.90;;;5.27;100.00;96414.22;4986742;28;20486;-75
2022/04/01 05:27:23;;;;;;;16.83;10.30;;;4.60;99.90;;;5.18;100.00;96420.56;4986829;28;20483;-75
2022/04/01 05:30:12;;;;;;;17.20;11.13;;;4.50;99.90;;;5.09;100.00;96424.31;4988009;28;20448;-75
2022/04/01 05:33:15;;;;;;;17.23;10.73;;;4.40;99.90;;;5.11;100.00;96416.31;4986180;28;20557;-75
2022/04/01 05:35:51;;;;;;;15.43;10.17;;;4.50;99.90;;;5.12;100.00;96423.13;4984845;28;20463;-75
2022/04/01 05:38:22;;;;;;;19.83;11.90;;;4.40;99.90;;;5.15;100.00;96430.50;4985910;28;20444;-75
2022/04/01 05:40:51;;;;;;;16.40;12.03;;;4.40;99.90;;;5.14;100.00;96432.28;4986370;28;20483;-75
2022/04/01 05:43:24;;;;;;;18.60;12.20;;;4.40;99.90;;;5.02;100.00;96436.44;4985279;28;20448;-75
2022/04/01 05:45:58;;;;;;;16.47;11.70;;;4.20;99.90;;;5.02;100.00;96433.84;4988020;28;20443;-75
2022/04/01 05:48:31;;;;;;;19.70;13.40;;;4.20;99.90;;;5.04;100.00;96437.03;4985871;28;20444;-75
2022/04/01 05:51:04;;;;;;;18.07;12.70;;;4.20;99.90;;;5.05;100.00;96436.84;4987836;28;20474;-75
2022/04/01 05:53:35;;;;;;;20.50;12.53;;;4.20;99.90;;;5.08;100.00;96433.06;4986211;28;20552;-75
2022/04/01 05:56:05;;;;;;;18.07;13.30;;;4.20;99.90;;;5.10;100.00;96441.47;4986711;28;20470;-75
2022/04/01 05:58:35;;;;;;;20.27;14.20;;;4.30;99.90;;;5.14;100.00;96437.47;4985881;28;20503;-81
2022/04/01 06:01:22;;;;;;;23.17;14.03;;;4.30;99.90;;;5.13;100.00;96441.06;4980008;28;20488;-75
2022/04/01 06:04:49;;;;;;;19.77;11.97;;;4.30;99.90;;;5.16;100.00;96440.69;4981485;28;21365;-75
2022/04/01 06:07:35;;;;;;;18.03;12.23;;;4.40;99.90;;;5.18;100.00;96438.69;4983539;28;20468;-74
2022/04/01 06:10:09;;;;;;;16.60;12.50;;;4.40;99.90;;;5.12;100.00;96449.03;4982852;28;20986;-75
2022/04/01 06:13:01;;;;;;;20.03;13.43;;;4.30;99.90;;;5.17;100.00;96447.47;4981388;28;20475;-74
2022/04/01 06:15:47;;;;;;;20.03;12.70;;;4.40;99.90;;;5.24;100.00;96448.28;4983615;28;20473;-75
2022/04/01 06:18:33;;;;;;;16.57;12.37;;;4.40;99.90;;;5.25;100.00;96446.47;4987941;28;20433;-75
2022/04/01 06:21:08;;;;;;;17.20;11.50;;;4.50;99.90;;;5.24;100.00;96458.63;4985027;28;20502;-75
2022/04/01 06:24:06;;;;;;;21.10;12.00;;;4.60;99.90;;;5.22;100.00;96472.78;4983525;28;20470;-75
2022/04/01 06:26:41;;;;;;;15.80;11.13;;;4.40;99.90;;;5.19;100.00;96466.19;4982081;28;20461;-75
2022/04/01 06:29:38;;;;;;;14.33;10.07;;;4.40;99.90;;;5.15;100.00;96477.94;4983140;28;20491;-74
2022/04/01 06:32:13;;;;;;;15.13;10.03;;;4.40;99.90;;;5.19;100.00;96476.56;4979866;28;20969;-74
2022/04/01 06:35:05;;;;;;;16.20;10.50;;;4.40;99.90;;;5.21;100.00;96484.13;4984629;28;20483;-74
2022/04/01 06:37:43;;;;;;;14.30;9.73;;;4.50;99.90;;;5.21;100.00;96479.75;4982666;28;20555;-74
2022/04/01 06:40:14;;;;;;;15.17;10.50;;;4.40;99.90;;;5.22;100.00;96486.53;4982671;28;20464;-80
2022/04/01 06:42:52;;;;;;;18.77;12.33;;;4.50;99.90;;;5.16;100.00;96492.50;4980556;28;20493;-74
2022/04/01 06:45:23;;;;;;;13.63;8.83;;;4.40;99.90;;;5.20;100.00;96503.28;4981464;28;21309;-74
2022/04/01 06:47:52;;;;;;;11.27;9.40;;;4.40;99.90;;;5.23;100.00;96500.31;4981298;28;20482;-74
2022/04/01 06:50:24;;;;;;;12.00;8.63;;;4.40;99.90;;;5.19;100.00;96499.88;4982891;28;20484;-74
2022/04/01 06:52:54;;;;;;;11.33;8.87;;;4.40;99.90;;;5.18;100.00;96511.22;4982470;28;20999;-74
2022/04/01 06:55:24;;;;;;;13.13;8.63;;;4.50;99.90;;;5.20;100.00;96514.44;4986203;28;20670;-74
2022/04/01 06:57:54;;;;;;;11.40;9.33;;;4.40;99.90;;;5.24;100.00;96510.47;4983321;28;21008;-74
2022/04/01 07:00:26;;;;;;;11.07;8.80;;;4.50;99.90;;;5.26;100.00;96518.84;4985172;28;20821;-74
2022/04/01 07:02:56;;;;;;;11.10;8.60;;;4.50;99.90;;;5.26;100.00;96518.84;4985795;28;20483;-74
2022/04/01 07:05:29;;;;;;;11.70;8.60;;;4.60;99.90;;;5.28;100.00;96522.03;4986729;28;20612;-74
2022/04/01 07:07:58;;;;;;;13.63;8.27;;;4.60;99.90;;;5.24;100.00;96520.81;4982916;28;20471;-75
2022/04/01 07:10:27;;;;;;;11.07;8.70;;;4.50;99.90;;;5.25;100.00;96530.19;4979790;28;21010;-75
2022/04/01 07:12:57;;;;;;;9.30;7.60;;;4.50;99.90;;;5.28;100.00;96529.81;4981054;28;20464;-75
2022/04/01 07:15:28;;;;;;;11.87;7.80;;;4.50;99.90;;;5.23;100.00;96529.59;4985045;28;20535;-75
2022/04/01 07:17:59;;;;;;;9.57;7.43;;;4.60;99.90;;;5.14;100.00;96525.56;4977050;28;20462;-74
2022/04/01 07:20:30;;;;;;;10.03;7.70;;;4.70;99.90;;;5.16;100.00;96528.78;4979155;28;20555;-74
2022/04/01 07:23:01;;;;;;;121.20;71.13;;;4.50;99.90;;;5.17;100.00;96525.19;4983514;28;20574;-86
2022/04/01 07:25:32;;;;;;;12.10;8.53;;;4.50;99.90;;;5.20;100.00;96534.38;4982639;28;20467;-74
2022/04/01 07:28:02;;;;;;;8.30;6.30;;;4.50;99.90;;;5.10;100.00;96534.72;4977808;28;20543;-74
2022/04/01 07:30:31;;;;;;;8.93;7.30;;;4.40;99.90;;;5.13;100.00;96544.69;4981719;28;20469;-75
2022/04/01 07:33:03;;;;;;;10.17;7.50;;;4.40;99.90;;;5.13;100.00;96543.88;4981602;28;20472;-74
2022/04/01 07:35:35;;;;;;;11.77;7.00;;;4.40;99.90;;;5.16;100.00;96544.31;4980765;28;20465;-74
2022/04/01 07:38:06;;;;;;;11.77;6.70;;;4.50;99.90;;;5.15;100.00;96560.03;4983101;28;20501;-74
2022/04/01 07:40:36;;;;;;;6.73;5.70;;;4.50;99.90;;;5.00;100.00;96547.97;4980185;28;20460;-74
2022/04/01 07:43:07;;;;;;;7.37;6.00;;;4.30;99.90;;;4.98;100.00;96554.34;4980030;28;20532;-75
2022/04/01 07:45:37;;;;;;;8.90;6.57;;;4.20;99.90;;;4.95;100.00;96552.13;4979905;28;20563;-74
2022/04/01 07:48:10;;;;;;;9.33;6.60;;;4.20;99.90;;;5.00;100.00;96557.53;4984073;28;20819;-74
2022/04/01 07:50:41;;;;;;;7.87;6.40;;;4.30;99.90;;;5.00;100.00;96562.72;4984084;28;20979;-74
2022/04/01 07:53:12;;;;;;;8.20;6.20;;;4.20;99.90;;;4.98;100.00;96551.75;4977787;28;20924;-77
2022/04/01 07:55:43;;;;;;;7.13;5.90;;;4.20;99.90;;;5.01;100.00;96556.56;4980042;28;20999;-75
2022/04/01 07:58:13;;;;;;;7.17;5.30;;;4.30;99.90;;;4.95;100.00;96562.50;4979536;28;20549;-78
2022/04/01 08:01:00;;;;;;;12.63;7.90;;;4.30;99.90;;;4.84;100.00;96556.03;4977829;28;20463;-75
2022/04/01 08:03:30;;;;;;;7.30;5.87;;;4.10;99.90;;;4.84;100.00;96556.03;4976228;28;20504;-75
2022/04/01 08:06:02;;;;;;;8.30;6.00;;;4.20;99.90;;;4.86;100.00;96559.22;4980701;28;20551;-75
2022/04/01 08:08:32;;;;;;;9.27;6.77;;;4.20;99.90;;;4.84;100.00;96558.63;4979114;28;20460;-75
2022/04/01 08:11:02;;;;;;;8.93;5.90;;;4.10;99.90;;;4.85;100.00;96557.66;4985393;28;20942;-75
2022/04/01 08:13:31;;;;;;;7.83;6.47;;;4.10;99.90;;;4.76;100.00;96560.53;4984022;28;20499;-75
2022/04/01 08:16:02;;;;;;;7.67;5.57;;;4.10;99.90;;;4.78;100.00;96571.53;4984038;28;20950;-75
2022/04/01 08:18:32;;;;;;;9.07;6.40;;;4.00;99.90;;;4.78;100.00;96567.16;4984465;28;20784;-75
2022/04/01 08:21:04;;;;;;;7.57;6.23;;;4.00;99.90;;;4.82;100.00;96570.16;4981066;28;20505;-75
2022/04/01 08:23:38;;;;;;;7.00;5.73;;;4.10;99.90;;;4.85;100.00;96562.84;4978449;28;20532;-75
2022/04/01 08:26:08;;;;;;;7.77;5.90;;;4.10;99.90;;;4.92;100.00;96568.06;4979003;28;20560;-75
2022/04/01 08:28:37;;;;;;;9.30;6.20;;;4.10;99.90;;;4.94;100.00;96572.06;4979020;28;21024;-75
2022/04/01 08:31:10;;;;;;;8.37;5.97;;;4.10;99.90;;;4.96;100.00;96580.41;4979082;28;20968;-75
2022/04/01 08:33:39;;;;;;;7.17;6.10;;;4.30;99.90;;;4.91;100.00;96571.63;4979291;28;20500;-75
2022/04/01 08:36:10;;;;;;;10.07;6.20;;;4.20;99.90;;;4.95;100.00;96583.22;4980377;28;20460;-75
2022/04/01 08:38:40;;;;;;;7.97;5.57;;;4.20;99.90;;;4.92;100.00;96584.41;4981584;28;20868;-73
2022/04/01 08:41:09;;;;;;;41.40;20.07;;;4.10;99.90;;;4.96;100.00;96590.00;4981348;28;20472;-75
2022/04/01 08:43:42;;;;;;;10.40;7.10;;;4.20;99.90;;;4.96;100.00;96595.97;4981984;28;20673;-75
2022/04/01 08:46:12;;;;;;;10.20;5.80;;;4.20;99.90;;;5.05;100.00;96599.22;4979472;28;20499;-75
2022/04/01 08:48:43;;;;;;;8.30;5.80;;;4.30;99.90;;;5.06;100.00;96603.44;4978420;28;20485;-75
2022/04/01 08:51:14;;;;;;;7.50;5.30;;;4.30;99.90;;;4.95;100.00;96596.97;4977492;28;20467;-75
2022/04/01 08:53:46;;;;;;;6.83;5.17;;;4.20;99.90;;;4.98;100.00;96603.56;4980571;28;20580;-74
2022/04/01 08:56:21;;;;;;;8.00;5.70;;;4.20;99.90;;;5.05;100.00;96602.63;4979949;28;20928;-75
2022/04/01 08:58:50;;;;;;;6.83;5.73;;;4.30;99.90;;;5.12;100.00;96605.25;4980044;28;20558;-75
2022/04/01 09:01:20;;;;;;;10.07;6.73;;;4.40;99.90;;;5.15;100.00;96609.25;4973828;28;20666;-75
2022/04/01 09:03:49;;;;;;;7.73;5.30;;;4.50;99.90;;;5.13;100.00;96609.47;4977376;28;20595;-75
2022/04/01 09:06:20;;;;;;;8.00;5.83;;;4.40;99.90;;;5.07;100.00;96612.78;4975920;28;20474;-75
2022/04/01 09:08:49;;;;;;;6.07;5.03;;;4.30;99.90;;;4.93;100.00;96619.66;4980045;28;20471;-75
2022/04/01 09:11:20;;;;;;;8.17;5.93;;;4.20;99.90;;;4.94;100.00;96620.44;4976882;28;20481;-74
2022/04/01 09:13:52;;;;;;;7.40;5.70;;;4.20;99.90;;;4.90;100.00;96627.00;4980678;28;20467;-74
2022/04/01 09:16:31;;;;;;;7.50;5.77;;;4.20;99.90;;;4.95;100.00;96635.00;4980272;28;20966;-74
2022/04/01 09:19:03;;;;;;;7.40;5.37;;;4.20;99.90;;;4.90;100.00;96632.97;4981211;28;21034;-75
2022/04/01 09:21:36;;;;;;;6.90;5.33;;;4.20;99.90;;;4.85;100.00;96647.47;4969657;28;20476;-75
2022/04/01 09:24:09;;;;;;;7.23;5.67;;;4.10;99.90;;;4.79;100.00;96645.63;4980413;28;20492;-75
2022/04/01 09:26:42;;;;;;;7.40;5.13;;;4.00;99.90;;;4.72;100.00;96655.91;4983330;28;20468;-75
2022/04/01 09:29:13;;;;;;;9.57;5.73;;;4.00;99.90;;;4.68;100.00;96649.53;4984394;28;20538;-75
2022/04/01 09:31:43;;;;;;;7.30;5.20;;;4.00;99.90;;;4.64;100.00;96647.47;4980061;28;20483;-75
2022/04/01 09:34:14;;;;;;;10.20;5.40;;;3.90;99.90;;;4.69;100.00;96647.72;4984634;28;20759;-74
2022/04/01 09:36:47;;;;;;;8.30;5.40;;;3.90;99.90;;;4.68;100.00;96649.53;4985983;28;20459;-74
2022/04/01 09:39:19;;;;;;;6.90;5.20;;;4.00;99.90;;;4.61;100.00;96655.63;4984214;28;20462;-74
2022/04/01 09:41:52;;;;;;;11.97;7.60;;;3.90;99.90;;;4.64;100.00;96653.47;4985568;28;20560;-81
2022/04/01 09:44:29;;;;;;;8.90;5.20;;;3.90;99.90;;;4.63;100.00;96656.22;4987665;28;20498;-76
2022/04/01 09:47:00;;;;;;;8.10;5.40;;;3.90;99.90;;;4.61;100.00;96668.56;4987402;28;20508;-74
2022/04/01 09:49:36;;;;;;;6.90;5.00;;;3.90;99.90;;;4.55;100.00;96665.69;4987952;28;21018;-74
2022/04/01 09:52:13;;;;;;;12.77;5.67;;;3.80;99.90;;;4.54;100.00;96658.13;4985604;28;20459;-74
2022/04/01 09:54:45;;;;;;;9.80;5.97;;;3.80;99.90;;;4.61;100.00;96664.19;4988225;28;20525;-74
2022/04/01 09:57:17;;;;;;;7.77;5.10;;;3.90;99.90;;;4.70;100.00;96657.88;4986462;28;20487;-74
2022/04/01 09:59:49;;;;;;;7.00;4.87;;;4.00;99.90;;;4.70;100.00;96662.25;4990332;28;20507;-74
2022/04/01 10:02:19;;;;;;;8.87;4.30;;;4.00;99.90;;;4.66;100.00;96671.38;4989754;28;21037;-74
2022/04/01 10:04:49;;;;;;;12.87;4.63;;;3.90;99.90;;;4.63;100.00;96667.38;4990835;28;20448;-75
2022/04/01 10:07:22;;;;;;;7.00;4.93;;;3.90;99.90;;;4.57;100.00;96684.47;4989333;28;20466;-74
2022/04/01 10:09:54;;;;;;;8.90;4.90;;;3.90;99.90;;;4.56;100.00;96672.50;4990190;28;20880;-74
2022/04/01 10:12:39;;;;;;;5.93;5.30;;;4.00;99.90;;;4.60;100.00;96678.09;4987917;28;20476;-75
2022/04/01 10:15:11;;;;;;;10.37;5.77;;;4.00;99.90;;;4.60;100.00;96682.47;4990049;28;20480;-74
2022/04/01 10:17:57;;;;;;;6.30;5.00;;;4.00;99.90;;;4.62;100.00;96686.47;4990303;28;20452;-74
2022/04/01 10:20:34;;;;;;;10.17;5.70;;;4.00;99.90;;;4.56;100.00;96685.44;4989566;28;20472;-74
2022/04/01 10:23:07;;;;;;;6.23;4.77;;;3.90;99.90;;;4.49;100.00;96688.94;4990571;28;20479;-74
2022/04/01 10:26:13;;;;;;;7.20;5.47;;;3.80;99.90;;;4.59;100.00;96679.06;4990030;28;20444;-74
2022/04/01 10:28:47;;;;;;;9.10;5.53;;;3.90;99.90;;;4.66;100.00;96681.72;4989546;28;20539;-74
2022/04/01 10:31:20;;;;;;;6.87;4.93;;;3.90;99.90;;;4.65;100.00;96683.50;4988932;28;20891;-74
2022/04/01 10:33:51;;;;;;;5.03;3.77;;;4.00;99.90;;;4.66;100.00;96692.09;4989188;28;20444;-74
2022/04/01 10:36:31;;;;;;;8.17;4.33;;;3.90;99.90;;;4.65;99.51;96691.28;4989750;28;20526;-74
2022/04/01 10:39:06;;;;;;;7.50;4.70;;;4.00;99.90;;;4.54;100.00;96697.75;4989763;28;20496;-75
2022/04/01 10:41:35;;;;;;;6.83;4.87;;;3.90;99.90;;;4.55;100.00;96694.16;4988471;28;21026;-74
2022/04/01 10:44:08;;;;;;;9.33;4.47;;;4.00;99.90;;;4.54;100.00;96702.94;4990674;28;20500;-75
2022/04/01 10:46:57;;;;;;;6.87;4.30;;;3.90;99.90;;;4.53;100.00;96703.91;4989890;28;20988;-74
2022/04/01 10:52:23;;;;;;;7.13;4.97;;;3.80;99.90;;;4.46;97.86;96703.03;4988794;28;20970;-74
2022/04/01 10:55:16;;;;;;;6.37;4.20;;;3.70;99.90;;;4.44;97.83;96709.38;4991081;28;20455;-74